Data for 03/04/2015

Time Sea-Level Adjusted Pressure Absolute Pressure Temperature Relative Humidity Dew Point   
(mb) (inHg) (mb) (inHg) (C) (F) (%) (C) (F)
00:05 1018 30.06 847 25.01 -14 6.9 63 -19.6 -3.2
00:10 1018 30.06 847 25.01 -14 6.8 63 -19.7 -3.4
00:15 1018 30.06 847 25.01 -13.9 6.9 63 -19.5 -3.1
00:20 1018 30.06 847 25.01 -14 6.9 63 -19.6 -3.2
00:25 1018 30.06 847 25.01 -14 6.8 63 -19.6 -3.3
00:30 1018 30.06 847 25.01 -13.9 6.9 62 -19.7 -3.4
00:35 1018 30.06 847 25.01 -13.8 7.1 62 -19.5 -3.2
00:40 1018 30.06 847 25.01 -13.8 7.2 62 -19.5 -3.1
00:45 1018 30.06 848 25.04 -13.8 7.2 63 -19.4 -2.8
00:50 1018 30.06 848 25.04 -13.7 7.3 63 -19.3 -2.8
00:55 1018 30.06 848 25.04 -13.7 7.3 62 -19.4 -3
01:00 1019 30.09 848 25.04 -13.7 7.3 63 -19.3 -2.7
01:05 1019 30.09 848 25.04 -13.9 7.1 64 -19.2 -2.6
01:10 1019 30.09 848 25.04 -14.1 6.6 65 -19.4 -2.8
01:15 1019 30.09 848 25.04 -14.3 6.2 66 -19.3 -2.8
01:20 1019 30.09 848 25.04 -14.5 5.9 66 -19.5 -3
01:25 1019 30.09 848 25.04 -14.8 5.5 67 -19.6 -3.3
01:30 1019 30.09 848 25.04 -15 5.1 67 -19.8 -3.6
01:35 1019 30.09 848 25.04 -15 5 67 -19.8 -3.7
01:40 1019 30.09 848 25.04 -14.9 5.1 67 -19.8 -3.6
01:45 1019 30.09 848 25.04 -14.8 5.4 66 -19.8 -3.6
01:50 1019 30.09 848 25.04 -14.5 5.9 66 -19.6 -3.3
01:55 1019 30.09 848 25.04 -14.5 5.9 65 -19.6 -3.3
02:00 1019 30.09 848 25.04 -14.2 6.4 65 -19.4 -3
02:05 1019 30.09 848 25.04 -14.4 6.2 67 -19.3 -2.7
02:10 1019 30.09 848 25.04 -14.3 6.3 68 -18.9 -2
02:15 1019 30.09 848 25.04 -14.3 6.3 69 -18.7 -1.7
02:20 1019 30.09 848 25.04 -14.7 5.6 71 -18.8 -1.9
02:25 1019 30.09 848 25.04 -15 4.9 72 -19 -2.2
02:30 1019 30.09 848 25.04 -15 5.1 71 -19.1 -2.4
02:35 1019 30.09 848 25.04 -15 5.1 71 -19.1 -2.3
02:40 1019 30.09 848 25.04 -15.1 4.9 71 -19.3 -2.7
02:45 1019 30.09 848 25.04 -15.1 4.9 71 -19.2 -2.6
02:50 1019 30.09 848 25.04 -14.8 5.3 69 -19.3 -2.7
02:55 1019 30.09 848 25.04 -14.9 5.2 69 -19.4 -2.8
03:00 1019 30.09 848 25.04 -14.8 5.4 68 -19.4 -3
03:05 1019 30.09 849 25.07 -14.6 5.6 68 -19.3 -2.7
03:10 1019 30.09 849 25.07 -14.8 5.3 68 -19.4 -2.9
03:15 1019 30.09 849 25.07 -15.2 4.6 70 -19.6 -3.2
03:20 1019 30.09 849 25.07 -15.4 4.3 70 -19.7 -3.5
03:25 1019 30.09 849 25.07 -15.1 4.8 68 -19.7 -3.5
03:30 1019 30.09 848 25.04 -14.8 5.4 67 -19.5 -3.2
03:35 1019 30.09 848 25.04 -14.7 5.6 68 -19.4 -2.9
03:40 1019 30.09 848 25.04 -14.3 6.2 67 -19.2 -2.6
03:45 1019 30.09 848 25.04 -14.7 5.6 68 -19.3 -2.7
03:50 1019 30.09 848 25.04 -14.8 5.4 69 -19.3 -2.8
03:55 1019 30.09 848 25.04 -15 5 70 -19.3 -2.8
04:00 1019 30.09 848 25.04 -15.1 4.8 71 -19.2 -2.6
04:05 1019 30.09 848 25.04 -15.2 4.6 71 -19.3 -2.7
04:10 1019 30.09 848 25.04 -15.1 4.9 70 -19.4 -2.9
04:15 1019 30.09 848 25.04 -15.1 4.8 71 -19.3 -2.8
04:20 1019 30.09 848 25.04 -15.4 4.4 71 -19.5 -3
04:25 1019 30.09 848 25.04 -15.4 4.3 72 -19.4 -2.9
04:30 1019 30.09 848 25.04 -15.4 4.3 71 -19.5 -3
04:35 1019 30.09 848 25.04 -15.1 4.8 70 -19.5 -3
04:40 1019 30.09 848 25.04 -14.8 5.4 68 -19.4 -2.9
04:45 1019 30.09 848 25.04 -14.6 5.8 68 -19.3 -2.7
04:50 1019 30.09 848 25.04 -14.7 5.6 69 -19.2 -2.5
04:55 1019 30.09 849 25.07 -14.7 5.6 68 -19.3 -2.7
05:00 1019 30.09 849 25.07 -14.5 6 68 -19.2 -2.5
05:05 1019 30.09 849 25.07 -14.4 6.1 68 -19.1 -2.3
05:10 1020 30.12 849 25.07 -14.3 6.2 68 -19.1 -2.3
05:15 1020 30.12 849 25.07 -14.2 6.4 67 -19 -2.2
05:20 1020 30.12 849 25.07 -14.2 6.5 67 -19.1 -2.3
05:25 1020 30.12 849 25.07 -14.1 6.7 67 -18.9 -2.1
05:30 1020 30.12 849 25.07 -13.9 7 66 -18.9 -2.1
05:35 1020 30.12 849 25.07 -14.1 6.6 68 -18.9 -2
05:40 1020 30.12 849 25.07 -13.7 7.4 66 -18.8 -1.8
05:45 1020 30.12 849 25.07 -13.7 7.4 66 -18.7 -1.6
05:50 1020 30.12 849 25.07 -13.8 7.2 67 -18.7 -1.6
05:55 1020 30.12 849 25.07 -14.1 6.7 68 -18.7 -1.6
06:00 1020 30.12 849 25.07 -14.5 5.9 70 -18.9 -2
06:05 1020 30.12 849 25.07 -14.8 5.3 70 -19.1 -2.4
06:10 1020 30.12 849 25.07 -14.6 5.8 71 -18.8 -1.8
06:15 1020 30.12 849 25.07 -14.3 6.2 69 -18.8 -1.8
06:20 1020 30.12 849 25.07 -14.3 6.2 69 -18.9 -2
06:25 1020 30.12 849 25.07 -14.8 5.4 71 -18.9 -2.1
06:30 1020 30.12 849 25.07 -14.9 5.3 73 -18.8 -1.8
06:35 1020 30.12 849 25.07 -15.2 4.6 75 -18.8 -1.8
06:40 1020 30.12 849 25.07 -15.8 3.6 77 -19 -2.1
06:45 1020 30.12 849 25.07 -15.6 3.8 78 -18.6 -1.5
06:50 1020 30.12 849 25.07 -15.4 4.3 76 -18.8 -1.8
06:55 1020 30.12 849 25.07 -15.5 4.1 78 -18.6 -1.4
07:00 1020 30.12 849 25.07 -15 5 75 -18.5 -1.3
07:05 1020 30.12 849 25.07 -14.7 5.6 73 -18.5 -1.3
07:10 1020 30.12 849 25.07 -14.7 5.6 73 -18.5 -1.3
07:15 1020 30.12 849 25.07 -14.7 5.6 74 -18.4 -1.1
07:20 1020 30.12 849 25.07 -14.7 5.6 73 -18.5 -1.2
07:25 1020 30.12 849 25.07 -15.1 4.8 74 -18.7 -1.6
07:30 1020 30.12 849 25.07 -15.3 4.4 77 -18.6 -1.4
07:35 1020 30.12 850 25.1 -14.9 5.1 74 -18.6 -1.4
07:40 1020 30.12 850 25.1 -15.4 4.4 76 -18.7 -1.7
07:45 1020 30.12 850 25.1 -15.3 4.6 75 -18.7 -1.7
07:50 1020 30.12 850 25.1 -15.3 4.4 76 -18.7 -1.6
07:55 1020 30.12 850 25.1 -15.3 4.5 75 -18.7 -1.7
08:00 1020 30.12 850 25.1 -14.9 5.1 74 -18.6 -1.4
08:05 1020 30.12 850 25.1 -14.8 5.4 73 -18.6 -1.4
08:10 1021 30.15 850 25.1 -14.5 6 72 -18.4 -1.1
08:15 1021 30.15 850 25.1 -14.1 6.6 72 -18.2 -0.7
08:20 1020 30.12 850 25.1 -13.9 7.1 71 -18 -0.4
08:25 1020 30.12 850 25.1 -13.7 7.3 71 -17.8 -0.1
08:30 1021 30.15 850 25.1 -13.6 7.5 70 -17.9 -0.2
08:35 1021 30.15 850 25.1 -13.5 7.7 70 -17.9 -0.2
08:40 1021 30.15 850 25.1 -13.4 7.9 72 -17.4 0.6
08:45 1021 30.15 850 25.1 -13.1 8.5 69 -17.6 0.4
08:50 1021 30.15 850 25.1 -12.8 9 68 -17.5 0.4
08:55 1021 30.15 850 25.1 -12.8 8.9 69 -17.4 0.6
09:00 1021 30.15 850 25.1 -12.8 8.9 69 -17.3 0.9
09:05 1021 30.15 850 25.1 -12.7 9.1 69 -17.3 0.8
09:10 1021 30.15 850 25.1 -12.5 9.4 69 -17.1 1.2
09:15 1021 30.15 850 25.1 -12.6 9.4 70 -17 1.5
09:20 1021 30.15 850 25.1 -12.6 9.4 70 -16.9 1.5
09:25 1021 30.15 850 25.1 -12.6 9.4 71 -16.9 1.6
09:30 1021 30.15 850 25.1 -12.6 9.4 72 -16.6 2.1
09:35 1021 30.15 850 25.1 -12.6 9.3 72 -16.6 2.1
09:40 1021 30.15 851 25.13 -12.4 9.7 70 -16.8 1.7
09:45 1021 30.15 851 25.13 -12.1 10.3 68 -16.8 1.7
09:50 1021 30.15 851 25.13 -11.7 10.9 68 -16.5 2.3
09:55 1021 30.15 851 25.13 -11.5 11.3 67 -16.5 2.4
10:00 1021 30.15 851 25.13 -11.3 11.7 66 -16.5 2.3
10:05 1021 30.15 851 25.13 -10.8 12.5 63 -16.6 2.1
10:10 1021 30.15 851 25.13 -9.7 14.6 59 -16.3 2.6
10:15 1021 30.15 851 25.13 -9.4 15 57 -16.5 2.2
10:20 1021 30.15 851 25.13 -9.1 15.6 57 -16.3 2.7
10:25 1022 30.18 851 25.13 -8.6 16.6 55 -16 3.2
10:30 1022 30.18 851 25.13 -8.2 17.3 55 -15.8 3.6
10:35 1022 30.18 851 25.13 -8.3 17.1 56 -15.5 4.2
10:40 1022 30.18 851 25.13 -7.5 18.4 52 -15.8 3.6
10:45 1022 30.18 851 25.13 -6.9 19.6 48 -16.1 2.9
10:50 1022 30.18 851 25.13 -6.9 19.6 50 -15.6 3.9
10:55 1022 30.18 851 25.13 -6.8 19.7 51 -15.4 4.3
11:00 1022 30.18 851 25.13 -6.7 20 50 -15.5 4.2
11:05 1022 30.18 851 25.13 -6.8 19.8 50 -15.5 4
11:10 1022 30.18 851 25.13 -7.1 19.3 49 -16.1 3.1
11:15 1022 30.18 851 25.13 -7.6 18.3 51 -16 3.1
11:20 1022 30.18 851 25.13 -7.3 18.9 51 -15.8 3.6
11:25 1022 30.18 851 25.13 -6.5 20.3 49 -15.6 3.8
11:30 1022 30.18 851 25.13 -6.2 20.8 47 -15.8 3.6
11:35 1022 30.18 851 25.13 -5.9 21.4 46 -15.7 3.8
11:35 1022 30.18 851 25.13 -5.9 21.4 46 -15.7 3.8
11:40 1022 30.18 851 25.13 -5 23 43 -15.6 3.8
11:40 1022 30.18 851 25.13 -5 23 43 -15.6 3.8
11:45 1022 30.18 851 25.13 -4.5 23.9 43 -15.3 4.5
11:50 1022 30.18 851 25.13 -4.8 23.4 45 -15 5
11:55 1022 30.18 851 25.13 -5.2 22.6 45 -15.3 4.5
12:00 1022 30.18 851 25.13 -4.7 23.5 46 -14.8 5.4
12:05 1022 30.18 851 25.13 -3.7 25.3 41 -15.2 4.6
12:10 1022 30.18 851 25.13 -4.3 24.3 42 -15.3 4.5
12:15 1022 30.18 851 25.13 -4.3 24.2 42 -15.4 4.2
12:20 1022 30.18 851 25.13 -4 24.8 43 -14.8 5.3
12:25 1022 30.18 851 25.13 -3.1 26.5 39 -15.3 4.5
12:30 1022 30.18 851 25.13 -3 26.6 38 -15.6 4
12:35 1022 30.18 851 25.13 -3.4 25.9 37 -16.1 3.1
12:40 1022 30.18 851 25.13 -3.4 25.9 35 -16.8 1.8
12:45 1022 30.18 851 25.13 -2.8 27 34 -16.8 1.8
12:50 1022 30.18 851 25.13 -2.9 26.8 34 -16.7 2
12:55 1022 30.18 851 25.13 -2.6 27.3 34 -16.6 2.1
13:05 1022 30.18 851 25.13 -2.2 28.1 33 -16.5 2.2
13:10 1022 30.18 851 25.13 -2.4 27.7 33 -16.6 2.2
13:15 1022 30.18 851 25.13 -1.9 28.6 30 -17.2 1
13:20 1022 30.18 851 25.13 -1.8 28.8 30 -17.2 1.1
13:25 1022 30.18 851 25.13 -1.3 29.6 30 -16.9 1.6
13:30 1022 30.18 851 25.13 -1 30.2 29 -17.1 1.2
13:35 1021 30.15 851 25.13 -1.3 29.7 29 -17.1 1.3
13:40 1021 30.15 851 25.13 -1.6 29.1 30 -17 1.4
13:45 1021 30.15 851 25.13 -1.3 29.6 29 -17.2 1
13:50 1021 30.15 851 25.13 -1.1 30 28 -17.3 0.8
13:55 1021 30.15 851 25.13 -1.1 30.1 27 -17.7 0.1
14:00 1021 30.15 851 25.13 -0.9 30.3 26 -18.3 -1
14:05 1021 30.15 850 25.1 -1.1 30 25 -18.7 -1.6
14:10 1021 30.15 850 25.1 -0.7 30.7 27 -17.7 0.1
14:15 1021 30.15 850 25.1 -0.4 31.2 25 -18.3 -0.9
14:20 1021 30.15 850 25.1 -1 30.3 25 -18.6 -1.5
14:25 1021 30.15 850 25.1 -0.9 30.4 25 -18.7 -1.6
14:30 1021 30.15 850 25.1 -0.9 30.4 26 -18.4 -1.1
14:35 1021 30.15 850 25.1 -0.7 30.8 25 -18.6 -1.5
14:40 1021 30.15 850 25.1 -0.6 30.8 26 -17.8 -0.1
14:45 1021 30.15 850 25.1 -0.6 30.8 25 -18.6 -1.4
14:50 1021 30.15 850 25.1 -0.6 30.9 26 -18 -0.5
14:55 1021 30.15 850 25.1 -0.3 31.5 25 -18.2 -0.8
15:00 1021 30.15 850 25.1 -0.6 31 25 -18.2 -0.8
15:05 1021 30.15 850 25.1 -0.6 30.9 25 -18.6 -1.4
15:10 1021 30.15 850 25.1 -0.1 31.9 25 -18.1 -0.6
15:15 1021 30.15 850 25.1 0 32.1 24 -18.5 -1.2
15:20 1021 30.15 850 25.1 -0.1 31.9 25 -17.9 -0.1
15:25 1021 30.15 850 25.1 0.1 32.2 26 -17.2 1.1
15:30 1021 30.15 850 25.1 -0.3 31.5 26 -17.6 0.4
15:35 1021 30.15 850 25.1 -0.3 31.5 26 -17.7 0.1
15:40 1021 30.15 850 25.1 -0.6 30.9 26 -17.9 -0.2
15:45 1021 30.15 850 25.1 -0.5 31.1 26 -17.8 -0
15:50 1021 30.15 850 25.1 -0.4 31.3 25 -18.3 -0.9
15:55 1021 30.15 850 25.1 -1 30.1 26 -18.2 -0.8
16:00 1021 30.15 850 25.1 0.1 32.1 24 -18.5 -1.3
16:05 1021 30.15 850 25.1 0.4 32.7 23 -18.3 -0.9
16:10 1021 30.15 850 25.1 0.1 32.2 24 -18.4 -1.1
16:15 1021 30.15 850 25.1 -0.9 30.3 24 -18.9 -2.1
16:20 1021 30.15 850 25.1 -1.4 29.5 26 -18.8 -1.8
16:25 1021 30.15 850 25.1 -0.5 31 23 -19.2 -2.5
16:30 1021 30.15 850 25.1 0.5 32.8 24 -18.1 -0.6
16:35 1021 30.15 850 25.1 0.8 33.4 22 -18.8 -1.8
16:40 1021 30.15 850 25.1 -0 31.9 24 -18.3 -1
16:45 1020 30.12 850 25.1 0.4 32.7 23 -18.6 -1.6
16:50 1020 30.12 850 25.1 0.7 33.2 23 -18.2 -0.8
16:55 1020 30.12 850 25.1 0.8 33.5 22 -18.6 -1.4
17:00 1020 30.12 849 25.07 0.7 33.2 24 -17.5 0.4
17:05 1020 30.12 849 25.07 0.5 32.9 23 -18.4 -1.1
17:10 1020 30.12 849 25.07 0.7 33.2 24 -17.9 -0.3
17:15 1020 30.12 849 25.07 0.9 33.5 23 -18.2 -0.8
17:20 1020 30.12 849 25.07 0.6 33.1 25 -17.4 0.7
17:25 1020 30.12 849 25.07 0.5 32.8 24 -17.9 -0.2
17:30 1020 30.12 849 25.07 0.4 32.8 25 -17.5 0.5
17:35 1020 30.12 849 25.07 0.7 33.2 25 -17.1 1.3
17:40 1020 30.12 849 25.07 0.4 32.7 25 -17.3 0.8
17:45 1020 30.12 849 25.07 0.7 33.3 25 -17.3 0.8
17:50 1020 30.12 849 25.07 1.1 33.9 25 -16.8 1.7
17:55 1020 30.12 849 25.07 1 33.8 25 -17.1 1.2
18:00 1020 30.12 849 25.07 1.3 34.3 24 -17.4 0.6
18:05 1020 30.12 849 25.07 0.9 33.7 24 -17.8 0
18:10 1020 30.12 849 25.07 1.3 34.3 23 -17.5 0.5
18:15 1020 30.12 849 25.07 1.5 34.6 23 -17.8 0
18:20 1020 30.12 849 25.07 0.5 32.9 25 -17.3 0.9
18:25 1020 30.12 849 25.07 0.3 32.5 25 -17.7 0.1
18:30 1020 30.12 849 25.07 0.3 32.5 25 -17.8 -0.1
18:35 1020 30.12 849 25.07 0.3 32.6 25 -17.5 0.5
18:40 1020 30.12 849 25.07 0.4 32.8 25 -17.6 0.4
18:45 1019 30.09 849 25.07 0.6 33.2 24 -17.6 0.3
18:50 1019 30.09 849 25.07 0.5 32.9 24 -17.7 0.1
18:55 1019 30.09 849 25.07 0.3 32.6 25 -17.6 0.4
19:00 1019 30.09 849 25.07 -0 31.9 26 -17.3 0.8
19:05 1019 30.09 849 25.07 -0.4 31.2 27 -17.4 0.6
19:10 1019 30.09 849 25.07 -0.6 30.9 28 -17.2 1.1
19:15 1019 30.09 849 25.07 -0.9 30.4 29 -17 1.3
19:20 1019 30.09 849 25.07 -1.2 29.8 30 -16.9 1.7
19:25 1019 30.09 849 25.07 -1.4 29.4 31 -16.6 2.1
19:30 1019 30.09 849 25.07 -1.5 29.4 30 -16.8 1.7
19:35 1019 30.09 849 25.07 -1.5 29.2 31 -16.8 1.8
19:40 1019 30.09 849 25.07 -1.6 29 32 -16.5 2.4
19:45 1019 30.09 849 25.07 -1.8 28.7 31 -16.7 1.9
19:50 1019 30.09 849 25.07 -1.9 28.6 32 -16.5 2.3
19:55 1020 30.12 849 25.07 -2 28.4 32 -16.5 2.4
20:00 1020 30.12 849 25.07 -2 28.4 33 -16.3 2.7
20:05 1020 30.12 849 25.07 -1.9 28.5 33 -16.2 2.8
20:10 1020 30.12 849 25.07 -2.1 28.3 37 -15.1 4.9
20:15 1020 30.12 849 25.07 -2.3 27.8 36 -15.5 4.2
20:20 1020 30.12 849 25.07 -2.4 27.8 36 -15.4 4.3
20:25 1020 30.12 849 25.07 -2.5 27.4 38 -14.9 5.2
20:30 1020 30.12 849 25.07 -2.6 27.4 40 -14.4 6.1
20:35 1020 30.12 849 25.07 -2.7 27.1 43 -13.6 7.6
20:40 1020 30.12 849 25.07 -2.8 27 44 -13.6 7.6
20:45 1020 30.12 849 25.07 -2.8 27 45 -13.1 8.3
20:50 1020 30.12 849 25.07 -2.7 27.1 43 -13.8 7.2
20:55 1020 30.12 849 25.07 -2.5 27.4 45 -13 8.7
21:00 1020 30.12 849 25.07 -2.5 27.5 42 -13.7 7.4
21:05 1020 30.12 849 25.07 -2.6 27.4 46 -12.7 9.1
21:10 1020 30.12 849 25.07 -2.8 27 48 -12.4 9.6
21:15 1020 30.12 849 25.07 -2.8 26.9 48 -12.5 9.5
21:20 1020 30.12 849 25.07 -2.7 27.1 48 -12.2 10
21:25 1020 30.12 849 25.07 -2.7 27.1 51 -11.6 11.1
21:30 1020 30.12 849 25.07 -2.8 27 51 -11.6 11.1
21:35 1020 30.12 849 25.07 -2.6 27.3 51 -11.5 11.3
21:40 1020 30.12 849 25.07 -2.7 27.1 53 -11 12.2
21:45 1020 30.12 849 25.07 -2.9 26.8 51 -11.6 11.2
21:50 1020 30.12 849 25.07 -2.9 26.8 46 -12.8 8.9
21:55 1020 30.12 849 25.07 -2.7 27.2 42 -13.9 7
22:00 1020 30.12 849 25.07 -2.6 27.3 46 -12.7 9.1
22:05 1020 30.12 849 25.07 -2.8 27 48 -12.3 9.9
22:10 1020 30.12 849 25.07 -2.9 26.9 46 -13 8.6
22:15 1020 30.12 849 25.07 -2.8 26.9 48 -12.4 9.6
22:20 1020 30.12 849 25.07 -3 26.6 45 -13.4 7.9
22:25 1020 30.12 849 25.07 -3.1 26.5 44 -13.8 7.2
22:30 1020 30.12 849 25.07 -3.1 26.4 44 -13.8 7.2
22:35 1020 30.12 849 25.07 -3.3 26.1 43 -14.1 6.7
22:40 1020 30.12 849 25.07 -3.4 25.9 44 -13.9 7.1
22:45 1020 30.12 849 25.07 -3.5 25.8 45 -13.8 7.2
22:50 1020 30.12 850 25.1 -3.4 25.9 45 -13.7 7.3
22:55 1020 30.12 850 25.1 -3.3 26 43 -14.2 6.4
23:00 1020 30.12 850 25.1 -3.2 26.3 41 -14.6 5.7
23:05 1020 30.12 850 25.1 -3 26.6 40 -14.7 5.5
23:10 1021 30.15 850 25.1 -2.9 26.7 41 -14.5 5.8
23:15 1021 30.15 850 25.1 -2.9 26.9 42 -14.1 6.6
23:20 1021 30.15 850 25.1 -3.2 26.3 43 -14 6.7
23:25 1021 30.15 850 25.1 -3.1 26.4 43 -14.1 6.6
23:30 1021 30.15 850 25.1 -2.9 26.8 42 -14.3 6.3
23:35 1021 30.15 850 25.1 -2.9 26.8 43 -13.8 7.2
23:40 1021 30.15 850 25.1 -3.1 26.4 43 -13.9 7
23:45 1021 30.15 850 25.1 -3.1 26.4 43 -14.1 6.7
23:50 1021 30.15 850 25.1 -3.1 26.4 43 -14.1 6.6
23:55 1021 30.15 850 25.1 -3.3 26.1 44 -14 6.8
24:00 1021 30.15 850 25.1 -3.4 25.9 45 -13.7 7.4